L.F. Wade International International Airport
TXKF : now visible

Airfield :











YOU CAN JOIN US ON...

 
LOGIN :

Register | Disclaimer

   EN    FR    IT 

 









Legend :    VFR   Marginal VFR   IFR   Intensive IFR   Very Intensive IFR
Visi :
Ceiling :
>= 8 km
>= 3000ft
5 to 8 km
1000 to 3000 ft
1500m to 5 km
500 to 1000 ft
800 to 1500m
200 to 500 ft
< 800m
< 200 ft
Symbols :   Thunderstorms  Fog  Heavy snow  Heavy precipitations  Wind > 20 kt






- Airport Elevation : 12 ft
- IATA code : BDA


TXKF - L.F. Wade International International

CURRENT METAR :
  • 291355Z 21013KT 9999 FEW018 SCT063 BKN091 17/14 Q1015

EXPIRED METARs :
  • 291314Z 22012KT 190V250 9999 VCSH SCT018 BKN049 BKN084 BKN300 16/13 Q1014 RMK WSHFT 11
  • 291255Z 27021KT 9999 VCSH SCT015 BKN038 BKN100 16/12 Q1015
  • 291155Z 24012KT 9999 -SHRA SCT038 BKN056 BKN091 18/12 Q1014
  • 291055Z 23012KT 9999 VCSH SCT040 063 BKN088 17/11 Q1014

TAF TAF TXKF
Valid from the 29 at 12:00 until the 01 at 12:00 UTC


291131Z 2912/0112 23013KT 9999 VCSH SCT040 BKN080
TEMPO 2912/2913 6000 SHRA BKN020
BECMG 2916/2919 26023KT SCT020 BKN035 OVC100
PROB30
TEMPO 2916/2921 4000 SHRA BKN014
PROB40
TEMPO 2921/0104 27030KT 3200 SHRA BKN012
PROB30
TEMPO 0104/0112 28020KT 4800 SHRA BKN015



MET'MAP, your aeronautical weather chart ! - Copyright ORBIFLY December 2007 - Disclaimer

ORBIFLY MET'MAP TEAM :

Programming & Development : Alexandra Zaïnal
Concept & original design : Baudouin d'Aumeries
Assistance for programming : Marc-Olivier Méhu
Technical & hardware support : Manuel Goepfert

Contact : metmap@orbifly.com




SOURCES & CREDITS :

   NOAA       Earth
Advisory